Time;durP1;ratioP1;P1;durP2;ratioP2;P2;SDS_P1;SDS_P2;PMS_P1;PMS_P2;Temp;Humidity;BMP_temperature;BMP_pressure;BME280_temperature;BME280_humidity;BME280_pressure;Samples;Min_cycle;Max_cycle;Signal;HPM_P1;HPM_P2
2022/04/13 06:31:14;;;;;;;20.10;3.65;;;;;;;;;;10479156;28;20625;-46
2022/04/13 06:36:15;;;;;;;18.92;2.97;;;;;;;;;;10437881;28;20378;-43
2022/04/13 06:41:16;;;;;;;10.25;3.38;;;;;;;;;;10441530;28;20082;-46
2022/04/13 06:46:16;;;;;;;8.18;3.20;;;;;;;;;;10443427;28;20473;-45
2022/04/13 06:51:17;;;;;;;18.40;4.00;;;;;;;;;;10443711;28;20067;-44
2022/04/13 06:56:18;;;;;;;18.73;3.85;;;;;;;;;;10442996;28;20033;-43
2022/04/13 07:01:19;;;;;;;12.10;3.20;;;;;;;;;;10442897;28;20052;-45
2022/04/13 07:06:19;;;;;;;5.82;2.53;;;;;;;;;;10442540;28;20052;-43
2022/04/13 07:11:20;;;;;;;11.23;3.28;;;;;;;;;;10442640;28;20025;-44
2022/04/13 07:16:20;;;;;;;11.18;3.30;;;;;;;;;;10442413;28;20025;-44
2022/04/13 07:21:21;;;;;;;10.77;3.67;;;;;;;;;;10442194;28;20029;-49
2022/04/13 07:26:22;;;;;;;7.30;3.20;;;;;;;;;;10442035;28;20030;-45
2022/04/13 07:31:22;;;;;;;11.50;2.85;;;;;;;;;;10441933;28;20037;-47
2022/04/13 07:36:23;;;;;;;9.38;2.70;;;;;;;;;;10441543;28;20021;-49
2022/04/13 07:41:24;;;;;;;12.32;3.28;;;;;;;;;;10420478;28;20037;-44
2022/04/13 07:46:27;;;;;;;7.63;2.83;;;;;;;;;;10414189;28;20034;-43
2022/04/13 07:51:28;;;;;;;10.07;3.08;;;;;;;;;;10413479;28;20378;-44
2022/04/13 07:56:29;;;;;;;3.90;2.55;;;;;;;;;;10413116;28;20029;-44
2022/04/13 08:01:30;;;;;;;13.90;3.88;;;;;;;;;;10413209;28;20041;-43
2022/04/13 08:06:30;;;;;;;13.18;3.35;;;;;;;;;;10413352;28;20062;-43
2022/04/13 08:11:31;;;;;;;9.77;3.15;;;;;;;;;;10413002;28;20029;-44
2022/04/13 08:16:32;;;;;;;10.25;3.20;;;;;;;;;;10412645;28;20029;-46
2022/04/13 08:21:33;;;;;;;7.50;3.20;;;;;;;;;;10412262;28;20037;-49
2022/04/13 08:26:34;;;;;;;12.93;3.30;;;;;;;;;;10412201;28;20050;-50
2022/04/13 08:31:34;;;;;;;6.63;2.95;;;;;;;;;;10412328;28;20500;-43
2022/04/13 08:36:35;;;;;;;8.63;3.25;;;;;;;;;;10411793;28;20030;-46
2022/04/13 08:41:46;;;;;;;7.75;2.67;;;;;;;;;;10411857;28;20034;-44
2022/04/13 08:46:48;;;;;;;5.95;2.58;;;;;;;;;;10411479;28;20037;-46
2022/04/13 08:51:52;;;;;;;6.75;2.63;;;;;;;;;;10410376;28;20018;-49
2022/04/13 08:56:55;;;;;;;9.88;2.72;;;;;;;;;;10409982;28;20044;-43
2022/04/13 09:02:28;;;;;;;4.90;2.38;;;;;;;;;;10410951;28;20459;-46
2022/04/13 09:07:33;;;;;;;6.20;2.63;;;;;;;;;;10410983;28;20120;-45
2022/04/13 09:12:36;;;;;;;3.90;2.58;;;;;;;;;;10409598;28;20432;-46
2022/04/13 09:17:37;;;;;;;6.35;3.05;;;;;;;;;;10410217;28;20025;-43
2022/04/13 09:22:38;;;;;;;5.63;2.70;;;;;;;;;;10410040;28;20033;-47
2022/04/13 09:27:39;;;;;;;6.40;3.00;;;;;;;;;;10408414;28;20041;-44
2022/04/13 09:32:41;;;;;;;9.57;2.80;;;;;;;;;;10409759;28;20026;-48
2022/04/13 09:37:43;;;;;;;8.10;2.80;;;;;;;;;;10409365;28;20134;-46
2022/04/13 09:42:44;;;;;;;6.18;2.45;;;;;;;;;;10408206;28;20037;-45
2022/04/13 09:47:46;;;;;;;5.32;2.80;;;;;;;;;;10409193;28;20112;-47
2022/04/13 09:52:54;;;;;;;9.13;2.78;;;;;;;;;;10408909;28;20536;-44
2022/04/13 09:58:10;;;;;;;3.47;2.57;;;;;;;;;;10409025;28;20092;-46
2022/04/13 10:03:20;;;;;;;3.70;2.40;;;;;;;;;;10408449;28;20461;-44
2022/04/13 10:08:24;;;;;;;6.65;2.92;;;;;;;;;;10408209;28;20029;-45
2022/04/13 10:13:42;;;;;;;9.10;2.83;;;;;;;;;;10408558;28;20037;-44
2022/04/13 10:19:07;;;;;;;5.28;3.00;;;;;;;;;;10408298;28;20100;-50
2022/04/13 10:24:18;;;;;;;5.30;2.40;;;;;;;;;;10408280;28;20219;-46
2022/04/13 10:29:19;;;;;;;5.28;2.58;;;;;;;;;;10407727;28;20583;-43
2022/04/13 10:34:29;;;;;;;5.80;2.78;;;;;;;;;;10407840;28;20025;-47
2022/04/13 10:39:30;;;;;;;4.95;2.35;;;;;;;;;;10407610;28;20040;-44
2022/04/13 10:44:58;;;;;;;5.28;2.70;;;;;;;;;;10407864;28;20040;-43
2022/04/13 10:50:02;;;;;;;5.30;2.67;;;;;;;;;;10407272;28;20049;-43
2022/04/13 10:55:07;;;;;;;6.22;2.33;;;;;;;;;;10407395;28;20025;-47
2022/04/13 11:00:10;;;;;;;5.60;1.90;;;;;;;;;;10406641;28;20036;-44
2022/04/13 11:05:13;;;;;;;5.60;2.28;;;;;;;;;;10406563;28;20374;-44
2022/04/13 11:10:19;;;;;;;4.53;2.47;;;;;;;;;;10392866;28;20034;-51
2022/04/13 11:15:50;;;;;;;4.50;2.42;;;;;;;;;;10381314;28;20030;-44
2022/04/13 11:21:10;;;;;;;9.27;2.85;;;;;;;;;;10395922;28;20060;-51
2022/04/13 11:26:10;;;;;;;4.95;2.70;;;;;;;;;;10399642;28;20025;-49
2022/04/13 11:31:13;;;;;;;5.13;2.60;;;;;;;;;;10404135;28;20050;-50
2022/04/13 11:36:13;;;;;;;11.43;2.83;;;;;;;;;;10410755;28;20549;-45
2022/04/13 11:41:14;;;;;;;8.07;2.67;;;;;;;;;;10405736;28;20080;-45
2022/04/13 11:46:38;;;;;;;3.88;2.60;;;;;;;;;;10373556;28;20491;-45
2022/04/13 11:51:39;;;;;;;15.95;2.97;;;;;;;;;;10393799;28;20029;-45
2022/04/13 11:56:52;;;;;;;4.55;2.50;;;;;;;;;;10409721;28;20056;-47
2022/04/13 12:01:54;;;;;;;5.00;2.40;;;;;;;;;;10412114;28;20029;-47
2022/04/13 12:06:55;;;;;;;5.65;2.80;;;;;;;;;;10412881;28;20033;-47
2022/04/13 12:11:56;;;;;;;4.53;2.60;;;;;;;;;;10413137;28;20113;-47
2022/04/13 12:16:59;;;;;;;2.70;2.17;;;;;;;;;;10411160;28;20389;-44
2022/04/13 12:22:00;;;;;;;3.10;2.42;;;;;;;;;;10407111;28;20314;-47
2022/04/13 12:27:00;;;;;;;3.88;2.47;;;;;;;;;;10378873;28;20287;-47
2022/04/13 12:32:01;;;;;;;9.60;2.85;;;;;;;;;;10410966;28;20029;-47
2022/04/13 12:37:03;;;;;;;5.53;2.50;;;;;;;;;;10404395;28;20033;-43
2022/04/13 12:42:05;;;;;;;3.88;2.33;;;;;;;;;;10394110;28;20096;-46
2022/04/13 12:47:08;;;;;;;3.63;2.20;;;;;;;;;;10394850;28;20045;-47
2022/04/13 12:52:09;;;;;;;12.18;2.72;;;;;;;;;;10408007;28;20064;-43
2022/04/13 12:57:11;;;;;;;6.70;2.92;;;;;;;;;;10396742;28;20113;-48
2022/04/13 13:02:18;;;;;;;5.03;2.45;;;;;;;;;;10378665;28;20057;-44
2022/04/13 13:07:29;;;;;;;7.78;2.85;;;;;;;;;;10396939;28;20040;-43
2022/04/13 13:12:33;;;;;;;6.60;2.58;;;;;;;;;;10387875;28;20061;-49
2022/04/13 13:17:42;;;;;;;9.48;3.20;;;;;;;;;;10370924;28;20429;-45
2022/04/13 13:22:50;;;;;;;;;;;;;;;;;;10384361;28;20033;-45
2022/04/13 13:27:56;;;;;;;7.88;2.53;;;;;;;;;;10406047;28;19928;-48
2022/04/13 13:32:57;;;;;;;6.57;2.60;;;;;;;;;;10385319;28;20488;-43
2022/04/13 13:38:08;;;;;;;3.90;2.20;;;;;;;;;;10407151;28;20098;-43
2022/04/13 13:43:15;;;;;;;5.55;2.70;;;;;;;;;;10384311;28;20084;-49
2022/04/13 13:48:28;;;;;;;7.72;2.50;;;;;;;;;;10385691;28;20562;-44
2022/04/13 13:53:28;;;;;;;12.20;3.17;;;;;;;;;;10403112;28;20120;-44
2022/04/13 13:58:29;;;;;;;9.43;2.65;;;;;;;;;;10407635;28;20046;-44
2022/04/13 14:03:30;;;;;;;8.10;3.03;;;;;;;;;;10407957;28;20033;-47
2022/04/13 14:08:30;;;;;;;7.57;3.22;;;;;;;;;;10408223;28;20388;-44
2022/04/13 14:13:31;;;;;;;5.50;2.50;;;;;;;;;;10408332;28;20034;-46
2022/04/13 14:18:31;;;;;;;7.22;2.85;;;;;;;;;;10408367;28;20056;-43
2022/04/13 14:23:32;;;;;;;6.63;2.80;;;;;;;;;;10408753;28;20025;-46
2022/04/13 14:28:32;;;;;;;8.30;3.20;;;;;;;;;;10407962;28;20049;-43
2022/04/13 14:33:33;;;;;;;5.82;2.97;;;;;;;;;;10408505;28;20029;-50
2022/04/13 14:38:34;;;;;;;12.30;2.72;;;;;;;;;;10408813;28;20029;-43
2022/04/13 14:43:34;;;;;;;5.82;2.83;;;;;;;;;;10407548;28;20040;-44
2022/04/13 14:48:35;;;;;;;12.82;2.90;;;;;;;;;;10409169;28;20029;-45
2022/04/13 14:53:36;;;;;;;6.82;3.03;;;;;;;;;;10416520;28;20021;-46
2022/04/13 14:58:37;;;;;;;5.28;2.80;;;;;;;;;;10416097;28;20025;-43
2022/04/13 15:03:37;;;;;;;7.85;2.70;;;;;;;;;;10412272;28;20125;-45
2022/04/13 15:08:42;;;;;;;10.13;2.97;;;;;;;;;;10414723;28;20053;-53
2022/04/13 15:13:43;;;;;;;7.80;2.95;;;;;;;;;;10414814;28;20401;-47
2022/04/13 15:18:43;;;;;;;14.43;3.25;;;;;;;;;;10415463;28;20029;-43
2022/04/13 15:23:44;;;;;;;9.40;2.70;;;;;;;;;;10409108;28;20034;-48
2022/04/13 15:28:45;;;;;;;9.32;2.50;;;;;;;;;;10373625;28;20409;-43
2022/04/13 15:33:46;;;;;;;7.07;2.50;;;;;;;;;;10409629;28;20029;-43
2022/04/13 15:38:46;;;;;;;11.23;3.22;;;;;;;;;;10408103;28;20064;-43
2022/04/13 15:43:48;;;;;;;8.77;2.78;;;;;;;;;;10412726;28;20232;-43
2022/04/13 15:48:48;;;;;;;8.48;3.08;;;;;;;;;;10412303;28;20033;-43
2022/04/13 15:53:49;;;;;;;9.38;2.90;;;;;;;;;;10413116;28;20029;-43
2022/04/13 15:58:50;;;;;;;12.07;2.58;;;;;;;;;;10413561;28;20045;-53
2022/04/13 16:03:52;;;;;;;11.82;3.33;;;;;;;;;;10413167;28;20124;-43
2022/04/13 16:08:52;;;;;;;11.02;2.80;;;;;;;;;;10413346;28;20051;-43
2022/04/13 16:13:53;;;;;;;8.98;2.70;;;;;;;;;;10413646;28;20064;-43
2022/04/13 16:18:53;;;;;;;7.32;3.00;;;;;;;;;;10412804;28;20029;-43
2022/04/13 16:23:54;;;;;;;6.50;3.08;;;;;;;;;;10412757;28;20033;-43
2022/04/13 16:28:54;;;;;;;5.40;2.47;;;;;;;;;;10412236;28;20115;-43
2022/04/13 16:33:55;;;;;;;9.73;2.63;;;;;;;;;;10412557;28;20033;-43
2022/04/13 16:38:56;;;;;;;5.30;2.90;;;;;;;;;;10412055;28;20033;-43
2022/04/13 16:43:58;;;;;;;7.15;2.97;;;;;;;;;;10408623;28;20104;-51
2022/04/13 16:48:58;;;;;;;9.75;2.53;;;;;;;;;;10415861;28;20120;-43
2022/04/13 16:53:59;;;;;;;5.47;2.55;;;;;;;;;;10396784;28;20033;-49
2022/04/13 16:59:02;;;;;;;14.68;2.85;;;;;;;;;;10392920;28;20775;-41
2022/04/13 17:04:03;;;;;;;9.38;2.78;;;;;;;;;;10411998;28;20051;-42
2022/04/13 17:09:05;;;;;;;4.45;2.78;;;;;;;;;;10410583;28;20037;-57
2022/04/13 17:14:06;;;;;;;6.40;2.63;;;;;;;;;;10410022;28;20401;-52
2022/04/13 17:19:07;;;;;;;5.95;2.60;;;;;;;;;;10416084;28;20033;-41
2022/04/13 17:24:09;;;;;;;3.40;2.38;;;;;;;;;;10425078;28;20070;-41
2022/04/13 17:29:12;;;;;;;8.18;3.38;;;;;;;;;;10405337;28;20060;-48
2022/04/13 17:34:20;;;;;;;6.72;3.20;;;;;;;;;;10382780;28;20025;-57
2022/04/13 17:39:21;;;;;;;4.88;2.75;;;;;;;;;;10378658;28;20030;-48
2022/04/13 17:44:21;;;;;;;7.75;2.72;;;;;;;;;;10377363;28;20423;-44
2022/04/13 17:49:23;;;;;;;6.38;2.78;;;;;;;;;;10396749;28;20118;-41
2022/04/13 17:54:24;;;;;;;8.02;2.80;;;;;;;;;;10401893;28;20121;-52
2022/04/13 17:59:25;;;;;;;3.47;2.60;;;;;;;;;;10417929;28;20087;-41
2022/04/13 18:04:26;;;;;;;8.30;2.92;;;;;;;;;;10424707;28;20413;-42
2022/04/13 18:09:27;;;;;;;7.72;2.60;;;;;;;;;;10417637;28;20068;-41
2022/04/13 18:14:28;;;;;;;6.57;2.25;;;;;;;;;;10398847;28;20083;-41
2022/04/13 18:19:29;;;;;;;6.75;3.05;;;;;;;;;;10397490;28;20087;-41
2022/04/13 18:24:29;;;;;;;5.95;3.20;;;;;;;;;;10385888;28;20377;-41
2022/04/13 18:29:30;;;;;;;7.28;2.90;;;;;;;;;;10407557;28;20150;-41
2022/04/13 18:34:31;;;;;;;7.07;2.25;;;;;;;;;;10367988;28;20065;-41
2022/04/13 18:39:31;;;;;;;7.30;3.03;;;;;;;;;;10369922;28;20080;-41
2022/04/13 18:44:33;;;;;;;6.93;2.60;;;;;;;;;;10387466;28;20064;-41
2022/04/13 18:49:34;;;;;;;5.20;2.90;;;;;;;;;;10391692;28;20384;-41
2022/04/13 18:54:35;;;;;;;6.28;2.92;;;;;;;;;;10397219;28;20025;-41
2022/04/13 18:59:36;;;;;;;6.60;2.70;;;;;;;;;;10405421;28;20053;-41
2022/04/13 19:04:36;;;;;;;6.22;3.08;;;;;;;;;;10416679;28;20033;-41
2022/04/13 19:09:38;;;;;;;6.78;2.67;;;;;;;;;;10408562;28;20481;-41
2022/04/13 19:14:39;;;;;;;5.25;2.28;;;;;;;;;;10401763;28;20540;-41
2022/04/13 19:19:39;;;;;;;4.57;2.17;;;;;;;;;;10390323;28;20084;-41
2022/04/13 19:24:40;;;;;;;8.75;2.58;;;;;;;;;;10365483;28;20026;-42
2022/04/13 19:29:40;;;;;;;6.28;2.72;;;;;;;;;;10406402;28;20045;-41
2022/04/13 19:34:41;;;;;;;8.55;2.90;;;;;;;;;;10376234;28;20037;-41
2022/04/13 19:39:42;;;;;;;5.68;3.28;;;;;;;;;;10387845;28;20025;-42
2022/04/13 19:44:45;;;;;;;8.20;2.88;;;;;;;;;;10382740;28;20038;-41
2022/04/13 19:49:45;;;;;;;7.40;2.92;;;;;;;;;;10397287;28;20029;-42
2022/04/13 19:54:46;;;;;;;4.35;2.60;;;;;;;;;;10413501;28;20495;-42
2022/04/13 19:59:46;;;;;;;5.13;2.63;;;;;;;;;;10424319;23;20497;-44
2022/04/13 20:04:47;;;;;;;6.05;2.67;;;;;;;;;;10415199;28;20025;-47
2022/04/13 20:09:48;;;;;;;4.25;2.78;;;;;;;;;;10377327;28;20033;-44
2022/04/13 20:14:49;;;;;;;9.57;2.70;;;;;;;;;;10395904;28;20024;-44
2022/04/13 20:19:50;;;;;;;7.55;2.00;;;;;;;;;;10454124;28;20538;-45
2022/04/13 20:24:50;;;;;;;3.97;2.40;;;;;;;;;;10419135;28;20051;-45
2022/04/13 20:29:51;;;;;;;4.18;2.17;;;;;;;;;;10412204;28;20029;-45
2022/04/13 20:34:52;;;;;;;3.58;2.28;;;;;;;;;;10412204;28;20025;-45
2022/04/13 20:39:53;;;;;;;5.40;1.98;;;;;;;;;;10379497;28;20173;-46
2022/04/13 20:44:54;;;;;;;4.28;2.40;;;;;;;;;;10407684;28;20105;-45
2022/04/13 20:49:54;;;;;;;6.65;2.22;;;;;;;;;;10410364;28;20384;-48
2022/04/13 20:54:55;;;;;;;4.45;2.67;;;;;;;;;;10425257;28;20021;-51
2022/04/13 20:59:55;;;;;;;9.15;2.75;;;;;;;;;;10394282;28;20104;-47
2022/04/13 21:04:56;;;;;;;8.95;2.63;;;;;;;;;;10411383;28;20045;-45
2022/04/13 21:09:56;;;;;;;7.47;2.63;;;;;;;;;;10411267;28;20044;-46
2022/04/13 21:14:57;;;;;;;14.18;2.33;;;;;;;;;;10395676;28;20052;-45
2022/04/13 21:19:58;;;;;;;7.15;2.40;;;;;;;;;;10385935;28;20026;-46
2022/04/13 21:24:58;;;;;;;8.32;2.47;;;;;;;;;;10410325;28;20057;-44
2022/04/13 21:29:59;;;;;;;8.15;2.35;;;;;;;;;;10413281;28;20025;-49
2022/04/13 21:34:59;;;;;;;4.72;2.42;;;;;;;;;;10433361;28;20025;-46
2022/04/13 21:40:00;;;;;;;14.55;2.72;;;;;;;;;;10410334;28;20024;-44
2022/04/13 21:45:01;;;;;;;9.38;2.60;;;;;;;;;;10408681;28;20022;-44
2022/04/13 21:50:01;;;;;;;4.47;2.10;;;;;;;;;;10407346;28;20449;-54
2022/04/13 21:55:02;;;;;;;5.68;2.28;;;;;;;;;;10420096;28;20658;-46
2022/04/13 22:00:06;;;;;;;3.15;1.95;;;;;;;;;;10397419;28;20053;-45
2022/04/13 22:05:08;;;;;;;10.55;2.40;;;;;;;;;;10387802;28;21494;-45
2022/04/13 22:10:09;;;;;;;5.75;2.30;;;;;;;;;;10392182;28;20033;-45
2022/04/13 22:15:09;;;;;;;7.00;2.38;;;;;;;;;;10382446;28;20446;-48
2022/04/13 22:20:13;;;;;;;7.95;2.60;;;;;;;;;;10385018;28;20037;-46
2022/04/13 22:25:13;;;;;;;4.70;2.72;;;;;;;;;;10418500;28;20040;-46
2022/04/13 22:30:14;;;;;;;22.75;2.53;;;;;;;;;;10394135;28;20357;-46
2022/04/13 22:35:14;;;;;;;28.65;3.47;;;;;;;;;;10401712;28;20034;-45
2022/04/13 22:40:15;;;;;;;8.32;2.70;;;;;;;;;;10375173;28;20030;-46
2022/04/13 22:45:16;;;;;;;20.42;2.60;;;;;;;;;;10376229;28;20563;-46
2022/04/13 22:50:17;;;;;;;5.43;2.30;;;;;;;;;;10396016;28;20489;-45
2022/04/13 22:55:18;;;;;;;13.60;2.55;;;;;;;;;;10374961;28;20335;-45
2022/04/13 23:00:19;;;;;;;7.47;2.20;;;;;;;;;;10389975;28;20034;-45
2022/04/13 23:05:19;;;;;;;3.58;2.25;;;;;;;;;;10370327;28;20030;-47
2022/04/13 23:10:20;;;;;;;6.47;2.28;;;;;;;;;;10398803;28;20121;-45
2022/04/13 23:15:21;;;;;;;2.72;2.17;;;;;;;;;;10379396;28;20034;-44
2022/04/13 23:20:21;;;;;;;5.95;2.67;;;;;;;;;;10410699;28;20064;-44
2022/04/13 23:25:22;;;;;;;5.38;2.20;;;;;;;;;;10402321;28;20087;-45
2022/04/13 23:30:22;;;;;;;8.68;2.38;;;;;;;;;;10405628;28;20029;-46
2022/04/13 23:35:23;;;;;;;4.50;2.40;;;;;;;;;;10373868;28;20033;-44
2022/04/13 23:40:24;;;;;;;5.53;2.05;;;;;;;;;;10379189;28;20044;-44
2022/04/13 23:45:24;;;;;;;6.97;2.50;;;;;;;;;;10395586;28;20366;-44
2022/04/13 23:50:25;;;;;;;3.35;1.98;;;;;;;;;;10399161;28;20034;-45
2022/04/13 23:55:27;;;;;;;9.70;2.50;;;;;;;;;;10409997;28;20037;-44
